createdAt,value
2022-09-13T00:01:16.383Z,87464.56
2022-09-13T00:03:43.694Z,87453.97
2022-09-13T00:06:18.376Z,87458.88
2022-09-13T00:08:46.617Z,87463.78
2022-09-13T00:11:18.960Z,87447.91
2022-09-13T00:13:47.573Z,87442.25
2022-09-13T00:16:18.501Z,87441.88
2022-09-13T00:18:46.273Z,87445.66
2022-09-13T00:21:17.381Z,87428.28
2022-09-13T00:23:50.866Z,87423.75
2022-09-13T00:26:28.013Z,87440.38
2022-09-13T00:28:58.503Z,87429.41
2022-09-13T00:31:28.350Z,87427.16
2022-09-13T00:33:58.417Z,87423.00
2022-09-13T00:36:25.663Z,87429.03
2022-09-13T00:38:53.002Z,87426.78
2022-09-13T00:41:21.886Z,87424.16
2022-09-13T00:43:57.498Z,87410.94
2022-09-13T00:46:42.520Z,87411.31
2022-09-13T00:49:27.926Z,87417.00
2022-09-13T00:52:07.328Z,87407.94
2022-09-13T00:54:42.852Z,87413.22
2022-09-13T00:57:13.025Z,87415.09
2022-09-13T01:00:02.955Z,87417.75
2022-09-13T01:02:30.957Z,87418.88
2022-09-13T01:04:58.517Z,87424.53
2022-09-13T01:07:25.795Z,87429.44
2022-09-13T01:09:54.017Z,87428.69
2022-09-13T01:12:49.249Z,87438.91
2022-09-13T01:15:16.400Z,87420.78
2022-09-13T01:17:44.351Z,87413.22
2022-09-13T01:20:13.016Z,87428.72
2022-09-13T01:22:48.808Z,87423.78
2022-09-13T01:25:34.186Z,87418.50
2022-09-13T01:28:24.495Z,87426.06
2022-09-13T01:31:10.123Z,87423.44
2022-09-13T01:33:54.905Z,87421.91
2022-09-13T01:36:56.832Z,87424.16
2022-09-13T01:39:52.378Z,87427.56
2022-09-13T01:42:59.475Z,87420.41
2022-09-13T01:46:06.208Z,87410.59
2022-09-13T01:49:19.986Z,87413.63
2022-09-13T01:52:16.542Z,87405.69
2022-09-13T01:55:02.209Z,87403.06
2022-09-13T01:58:05.992Z,87392.84
2022-09-13T02:00:59.966Z,87393.97
2022-09-13T02:03:37.795Z,87388.69
2022-09-13T02:06:17.310Z,87382.69
2022-09-13T02:08:55.216Z,87376.63
2022-09-13T02:11:24.066Z,87375.84
2022-09-13T02:14:21.375Z,87380.78
2022-09-13T02:17:01.489Z,87384.53
2022-09-13T02:20:10.170Z,87390.22
2022-09-13T02:22:46.149Z,87389.47
2022-09-13T02:25:19.528Z,87381.91
2022-09-13T02:27:53.315Z,87385.31
2022-09-13T02:30:20.851Z,87381.16
2022-09-13T02:33:08.309Z,87388.31
2022-09-13T02:35:54.734Z,87397.38
2022-09-13T02:38:43.349Z,87400.41
2022-09-13T02:41:21.886Z,87397.75
2022-09-13T02:44:06.468Z,87394.38
2022-09-13T02:47:31.894Z,87398.13
2022-09-13T02:50:16.033Z,87383.03
2022-09-13T02:53:04.052Z,87391.31
2022-09-13T02:55:54.987Z,87391.72
2022-09-13T02:58:29.168Z,87387.56
2022-09-13T03:00:56.628Z,87383.00
2022-09-13T03:03:25.113Z,87376.19
2022-09-13T03:05:53.773Z,87372.44
2022-09-13T03:08:24.457Z,87381.84
2022-09-13T03:11:05.982Z,87374.28
2022-09-13T03:14:20.469Z,87376.16
2022-09-13T03:17:15.648Z,87378.44
2022-09-13T03:20:24.570Z,87370.53
2022-09-13T03:23:35.990Z,87367.47
2022-09-13T03:26:46.462Z,87364.09
2022-09-13T03:29:58.949Z,87361.81
2022-09-13T03:33:13.802Z,87367.09
2022-09-13T03:35:50.863Z,87368.22
2022-09-13T03:39:00.618Z,87374.25
2022-09-13T03:41:39.507Z,87369.34
2022-09-13T03:44:16.912Z,87375.38
2022-09-13T03:46:48.748Z,87370.47
2022-09-13T03:49:20.205Z,87367.06
2022-09-13T03:51:51.296Z,87373.09
2022-09-13T03:54:32.363Z,87376.13
2022-09-13T03:57:18.459Z,87376.09
2022-09-13T03:59:52.688Z,87379.88
2022-09-13T04:02:22.050Z,87373.84
2022-09-13T04:04:49.623Z,87376.41
2022-09-13T04:07:23.113Z,87381.69
2022-09-13T04:09:50.463Z,87382.84
2022-09-13T04:12:18.999Z,87387.38
2022-09-13T04:14:46.222Z,87386.63
2022-09-13T04:17:14.730Z,87376.84
2022-09-13T04:19:42.983Z,87379.84
2022-09-13T04:22:10.168Z,87380.59
2022-09-13T04:24:37.282Z,87369.31
2022-09-13T04:27:04.694Z,87370.06
2022-09-13T04:29:32.022Z,87370.06
2022-09-13T04:31:59.904Z,87375.75
2022-09-13T04:34:27.224Z,87373.84
2022-09-13T04:36:54.596Z,87380.66
2022-09-13T04:39:22.502Z,87386.69
2022-09-13T04:41:51.385Z,87384.44
2022-09-13T04:44:18.874Z,87389.72
2022-09-13T04:46:50.212Z,87387.44
2022-09-13T04:49:18.886Z,87379.50
2022-09-13T04:51:49.056Z,87382.53
2022-09-13T04:54:16.586Z,87376.88
2022-09-13T04:56:45.522Z,87381.00
2022-09-13T04:59:13.315Z,87377.63
2022-09-13T05:01:41.071Z,87385.91
2022-09-13T05:04:09.796Z,87391.53
2022-09-13T05:06:37.663Z,87390.78
2022-09-13T05:09:05.717Z,87389.66
2022-09-13T05:11:33.335Z,87394.56
2022-09-13T05:14:01.396Z,87385.88
2022-09-13T05:16:32.228Z,87394.56
2022-09-13T05:19:00.972Z,87396.44
2022-09-13T05:21:29.334Z,87400.97
2022-09-13T05:23:58.036Z,87396.84
2022-09-13T05:26:28.131Z,87399.13
2022-09-13T05:28:55.319Z,87399.13
2022-09-13T05:31:30.671Z,87399.50
2022-09-13T05:34:14.195Z,87409.28
2022-09-13T05:36:42.557Z,87409.69
2022-09-13T05:42:02.625Z,87406.69
2022-09-13T05:44:29.937Z,87411.59
2022-09-13T05:46:57.084Z,87409.69
2022-09-13T05:49:24.265Z,87414.59
2022-09-13T05:51:51.496Z,87410.84
2022-09-13T05:54:18.619Z,87418.75
2022-09-13T05:56:45.909Z,87416.13
2022-09-13T05:59:14.020Z,87421.41
2022-09-13T06:01:41.420Z,87422.94
2022-09-13T06:04:08.845Z,87409.72
2022-09-13T06:06:36.100Z,87407.09
2022-09-13T06:09:03.603Z,87408.25
2022-09-13T06:11:31.539Z,87419.16
2022-09-13T06:13:58.778Z,87414.66
2022-09-13T06:16:26.300Z,87414.69
2022-09-13T06:18:53.564Z,87408.69
2022-09-13T06:21:28.231Z,87411.72
2022-09-13T06:23:56.388Z,87409.44
2022-09-13T06:26:27.395Z,87394.72
2022-09-13T06:28:57.685Z,87402.69
2022-09-13T06:31:28.409Z,87401.16
2022-09-13T06:34:01.607Z,87397.75
2022-09-13T06:36:29.341Z,87396.63
2022-09-13T06:38:56.471Z,87395.09
2022-09-13T06:41:25.143Z,87389.03
2022-09-13T06:43:58.873Z,87377.66
2022-09-13T06:46:29.420Z,87389.38
2022-09-13T06:49:01.493Z,87402.53
2022-09-13T06:51:37.585Z,87407.81
2022-09-13T06:54:05.511Z,87408.53
2022-09-13T06:56:38.653Z,87408.50
2022-09-13T06:59:10.884Z,87410.72
2022-09-13T07:01:42.323Z,87403.47
2022-09-13T07:04:18.596Z,87401.16
2022-09-13T07:06:49.240Z,87403.75
2022-09-13T07:09:22.178Z,87397.25
2022-09-13T07:11:54.725Z,87393.75
2022-09-13T07:14:28.096Z,87398.63
2022-09-13T07:16:56.124Z,87405.03
2022-09-13T07:19:26.319Z,87390.19
2022-09-13T07:21:55.965Z,87393.16
2022-09-13T07:24:24.068Z,87385.91
2022-09-13T07:26:51.834Z,87378.66
2022-09-13T07:29:22.831Z,87377.44
2022-09-13T07:31:55.406Z,87380.78
2022-09-13T07:34:25.736Z,87378.41
2022-09-13T07:36:53.800Z,87381.00
2022-09-13T07:39:22.996Z,87379.00
2022-09-13T07:41:52.136Z,87380.84
2022-09-13T07:44:19.445Z,87387.63
2022-09-13T07:46:46.672Z,87381.47
2022-09-13T07:49:19.434Z,87377.63
2022-09-13T07:51:46.702Z,87379.03
2022-09-13T07:54:18.126Z,87376.69
2022-09-13T07:56:46.199Z,87382.28
2022-09-13T07:59:16.746Z,87379.94
2022-09-13T08:01:48.040Z,87382.56
2022-09-13T08:04:19.235Z,87384.75
2022-09-13T08:06:47.717Z,87389.97
2022-09-13T08:09:16.481Z,87376.19
2022-09-13T08:11:53.606Z,87383.69
2022-09-13T08:14:23.191Z,87380.19
2022-09-13T08:16:51.225Z,87370.97
2022-09-13T08:19:19.502Z,87380.69
2022-09-13T08:21:47.811Z,87377.53
2022-09-13T08:24:22.530Z,87374.03
2022-09-13T08:26:50.452Z,87377.72
2022-09-13T08:29:17.780Z,87382.94
2022-09-13T08:31:45.308Z,87386.75
2022-09-13T08:34:17.376Z,87375.16
2022-09-13T08:36:45.120Z,87372.00
2022-09-13T08:39:13.191Z,87380.38
2022-09-13T08:41:40.357Z,87386.34
2022-09-13T08:44:43.049Z,87375.19
2022-09-13T08:47:39.761Z,87370.94
2022-09-13T08:50:23.777Z,87363.56
2022-09-13T08:53:08.560Z,87363.84
2022-09-13T08:56:23.270Z,87369.72
2022-09-13T08:59:16.430Z,87356.91
2022-09-13T09:02:41.290Z,87355.63
2022-09-13T09:05:31.136Z,87346.34
2022-09-13T09:08:22.750Z,87342.38
2022-09-13T09:10:53.180Z,87349.47
2022-09-13T09:13:53.928Z,87344.34
2022-09-13T09:16:48.446Z,87332.00
2022-09-13T09:19:33.036Z,87320.06
2022-09-13T09:22:04.437Z,87327.06
2022-09-13T09:24:37.527Z,87323.09
2022-09-13T09:27:16.643Z,87315.75
2022-09-13T09:29:46.026Z,87314.19
2022-09-13T09:32:52.920Z,87319.38
2022-09-13T09:36:07.623Z,87302.03
2022-09-13T09:38:42.617Z,87298.13
2022-09-13T09:41:32.439Z,87299.03
2022-09-13T09:44:22.506Z,87292.28
2022-09-13T09:47:13.505Z,87282.94
2022-09-13T09:49:55.986Z,87295.00
2022-09-13T09:53:07.550Z,87290.53
2022-09-13T09:55:58.625Z,87286.13
2022-09-13T09:58:46.604Z,87284.53
2022-09-13T10:01:28.090Z,87278.84
2022-09-13T10:04:19.722Z,87275.56
2022-09-13T10:06:47.103Z,87276.44
2022-09-13T10:09:14.602Z,87275.00
2022-09-13T10:11:54.068Z,87276.22
2022-09-13T10:14:38.158Z,87269.00
2022-09-13T10:17:14.501Z,87262.69
2022-09-13T10:19:50.809Z,87263.59
2022-09-13T10:22:18.380Z,87259.34
2022-09-13T10:24:45.892Z,87258.72
2022-09-13T10:27:25.157Z,87261.31
2022-09-13T10:29:55.729Z,87256.06
2022-09-13T10:32:23.658Z,87243.44
2022-09-13T10:34:52.228Z,87240.91
2022-09-13T10:37:29.272Z,87245.63
2022-09-13T10:40:06.328Z,87240.69
2022-09-13T10:42:34.920Z,87241.00
2022-09-13T10:45:04.576Z,87239.09
2022-09-13T10:47:54.799Z,87238.03
2022-09-13T10:50:26.190Z,87226.56
2022-09-13T10:53:00.419Z,87221.56
2022-09-13T10:55:30.182Z,87220.94
2022-09-13T10:58:03.806Z,87219.69
2022-09-13T11:01:03.982Z,87221.06
2022-09-13T11:04:00.400Z,87226.47
2022-09-13T11:06:50.302Z,87222.47
2022-09-13T11:09:44.108Z,87221.31
2022-09-13T11:12:28.657Z,87224.66
2022-09-13T11:15:14.918Z,87221.25
2022-09-13T11:18:06.480Z,87207.94
2022-09-13T11:20:52.066Z,87219.16
2022-09-13T11:23:30.222Z,87223.41
2022-09-13T11:26:23.733Z,87211.06
2022-09-13T11:29:31.067Z,87210.88
2022-09-13T11:32:19.125Z,87206.81
2022-09-13T11:35:29.593Z,87204.28
2022-09-13T11:38:21.687Z,87200.09
2022-09-13T11:41:03.327Z,87204.69
2022-09-13T11:43:36.079Z,87210.00
2022-09-13T11:46:21.577Z,87214.69
2022-09-13T11:48:58.955Z,87215.50
2022-09-13T11:51:47.137Z,87214.03
2022-09-13T11:54:55.203Z,87217.06
2022-09-13T11:57:32.886Z,87217.53
2022-09-13T12:00:15.527Z,87218.38
2022-09-13T12:03:08.809Z,87216.06
2022-09-13T12:05:44.593Z,87215.38
2022-09-13T12:08:22.868Z,87209.34
2022-09-13T12:11:04.802Z,87216.81
2022-09-13T12:14:02.659Z,87205.53
2022-09-13T12:16:40.650Z,87202.56
2022-09-13T12:19:29.123Z,87200.09
2022-09-13T12:22:01.086Z,87202.09
2022-09-13T12:24:53.612Z,87199.13
2022-09-13T12:27:47.497Z,87193.69
2022-09-13T12:30:19.643Z,87195.13
2022-09-13T12:32:49.403Z,87191.16
2022-09-13T12:36:11.136Z,87194.59
2022-09-13T12:39:19.416Z,87194.59
2022-09-13T12:42:23.825Z,87190.78
2022-09-13T12:45:16.123Z,87192.91
2022-09-13T12:48:09.928Z,87189.63
2022-09-13T12:51:07.510Z,87185.16
2022-09-13T12:54:04.153Z,87194.72
2022-09-13T12:57:25.874Z,87190.91
2022-09-13T13:00:24.114Z,87195.38
2022-09-13T13:03:04.824Z,87187.47
2022-09-13T13:05:41.427Z,87181.56
2022-09-13T13:08:30.656Z,87176.19
2022-09-13T13:11:14.343Z,87184.81
2022-09-13T13:13:53.368Z,87180.38
2022-09-13T13:16:28.616Z,87182.41
2022-09-13T13:19:02.737Z,87177.75
2022-09-13T13:21:39.646Z,87176.72
2022-09-13T13:24:27.794Z,87174.28
2022-09-13T13:26:59.455Z,87174.22
2022-09-13T13:29:30.463Z,87176.47
2022-09-13T13:31:57.672Z,87170.31
2022-09-13T13:34:51.050Z,87171.34
2022-09-13T13:37:18.163Z,87172.59
2022-09-13T13:39:48.871Z,87175.63
2022-09-13T13:42:31.507Z,87179.38
2022-09-13T13:45:01.439Z,87165.88
2022-09-13T13:47:29.123Z,87167.16
2022-09-13T13:50:17.415Z,87165.53
2022-09-13T13:52:47.384Z,87169.81
2022-09-13T13:55:43.348Z,87158.97
2022-09-13T13:58:16.170Z,87164.25
2022-09-13T14:00:51.218Z,87169.03
2022-09-13T14:03:55.032Z,87170.31
2022-09-13T14:07:00.475Z,87171.13
2022-09-13T14:09:57.766Z,87173.13
2022-09-13T14:12:36.695Z,87167.69
2022-09-13T14:15:28.880Z,87171.19
2022-09-13T14:18:27.156Z,87176.13
2022-09-13T14:21:03.452Z,87169.63
2022-09-13T14:23:31.809Z,87174.41
2022-09-13T14:26:01.101Z,87172.19
2022-09-13T14:28:28.761Z,87170.41
2022-09-13T14:30:59.856Z,87165.44
2022-09-13T14:33:33.569Z,87160.25
2022-09-13T14:36:20.646Z,87162.56
2022-09-13T14:38:57.235Z,87168.31
2022-09-13T14:41:38.456Z,87170.06
2022-09-13T14:44:28.934Z,87164.75
2022-09-13T14:47:21.207Z,87162.16
2022-09-13T14:49:59.957Z,87169.34
2022-09-13T14:52:35.511Z,87161.56
2022-09-13T14:55:23.993Z,87163.25
2022-09-13T14:58:00.378Z,87158.66
2022-09-13T15:00:28.711Z,87162.13
2022-09-13T15:03:01.392Z,87164.88
2022-09-13T15:05:34.045Z,87155.22
2022-09-13T15:08:43.063Z,87153.28
2022-09-13T15:11:35.309Z,87157.28
2022-09-13T15:14:35.027Z,87158.72
2022-09-13T15:17:13.637Z,87142.88
2022-09-13T15:19:50.523Z,87152.53
2022-09-13T15:22:25.013Z,87150.16
2022-09-13T15:25:03.666Z,87154.72
2022-09-13T15:27:47.508Z,87152.75
2022-09-13T15:30:26.372Z,87151.00
2022-09-13T15:33:11.921Z,87143.44
2022-09-13T15:35:47.608Z,87155.47
2022-09-13T15:38:31.146Z,87159.06
2022-09-13T15:41:13.502Z,87152.91
2022-09-13T15:43:40.785Z,87153.19
2022-09-13T15:46:15.473Z,87149.53
2022-09-13T15:48:56.779Z,87161.56
2022-09-13T15:51:24.054Z,87163.88
2022-09-13T15:53:52.085Z,87167.59
2022-09-13T15:56:31.617Z,87166.91
2022-09-13T15:58:59.218Z,87167.84
2022-09-13T16:01:26.739Z,87169.13
2022-09-13T16:03:54.340Z,87165.91
2022-09-13T16:06:24.557Z,87167.97
2022-09-13T16:08:51.984Z,87163.00
2022-09-13T16:11:19.232Z,87168.09
2022-09-13T16:13:46.398Z,87168.69
2022-09-13T16:16:16.409Z,87172.53
2022-09-13T16:18:43.820Z,87163.88
2022-09-13T16:21:11.064Z,87170.38
2022-09-13T16:23:38.226Z,87173.25
2022-09-13T16:26:06.139Z,87177.41
2022-09-13T16:28:33.436Z,87180.53
2022-09-13T16:31:00.761Z,87185.69
2022-09-13T16:33:28.043Z,87184.44
2022-09-13T16:35:58.012Z,87177.81
2022-09-13T16:38:28.749Z,87177.41
2022-09-13T16:40:55.851Z,87180.34
2022-09-13T16:43:23.303Z,87181.94
2022-09-13T16:45:52.814Z,87186.63
2022-09-13T16:48:19.940Z,87190.72
2022-09-13T16:50:47.084Z,87187.28
2022-09-13T16:53:14.250Z,87192.22
2022-09-13T16:55:41.510Z,87196.91
2022-09-13T16:58:09.007Z,87197.38
2022-09-13T17:00:36.141Z,87194.69
2022-09-13T17:03:03.837Z,87193.69
2022-09-13T17:05:31.047Z,87193.41
2022-09-13T17:07:58.287Z,87203.69
2022-09-13T17:10:25.528Z,87211.03
2022-09-13T17:12:52.767Z,87200.72
2022-09-13T17:15:20.054Z,87199.53
2022-09-13T17:17:47.321Z,87208.19
2022-09-13T17:20:14.691Z,87210.56
2022-09-13T17:22:41.950Z,87217.56
2022-09-13T17:25:10.616Z,87218.31
2022-09-13T17:27:37.981Z,87217.22
2022-09-13T17:30:06.312Z,87223.03
2022-09-13T17:32:33.662Z,87231.66
2022-09-13T17:35:00.833Z,87240.00
2022-09-13T17:37:28.399Z,87230.41
2022-09-13T17:39:55.730Z,87232.50
2022-09-13T17:42:23.633Z,87236.97
2022-09-13T17:44:51.215Z,87233.97
2022-09-13T17:47:18.361Z,87228.41
2022-09-13T17:49:45.636Z,87223.50
2022-09-13T17:52:12.805Z,87229.91
2022-09-13T17:54:40.072Z,87227.91
2022-09-13T17:57:07.675Z,87237.47
2022-09-13T17:59:34.819Z,87238.94
2022-09-13T18:02:02.334Z,87245.47
2022-09-13T18:04:29.769Z,87249.47
2022-09-13T18:06:57.064Z,87249.25
2022-09-13T18:09:24.315Z,87259.81
2022-09-13T18:11:51.821Z,87251.28
2022-09-13T18:14:20.783Z,87255.28
2022-09-13T18:16:48.429Z,87253.91
2022-09-13T18:19:44.956Z,87264.47
2022-09-13T18:22:12.317Z,87264.25
2022-09-13T18:24:39.525Z,87262.13
2022-09-13T18:27:06.795Z,87270.00
2022-09-13T18:29:34.086Z,87274.00
2022-09-13T18:32:01.510Z,87282.75
2022-09-13T18:34:28.785Z,87281.09
2022-09-13T18:36:59.209Z,87281.66
2022-09-13T18:39:26.383Z,87280.69
2022-09-13T18:41:54.039Z,87288.25
2022-09-13T18:44:24.744Z,87294.66
2022-09-13T18:46:52.061Z,87283.34
2022-09-13T18:49:19.265Z,87287.81
2022-09-13T18:51:46.426Z,87289.44
2022-09-13T18:54:16.510Z,87295.34
2022-09-13T18:56:46.681Z,87301.13
2022-09-13T18:59:14.594Z,87301.69
2022-09-13T19:01:44.157Z,87306.81
2022-09-13T19:04:17.856Z,87310.81
2022-09-13T19:06:50.351Z,87316.16
2022-09-13T19:09:18.629Z,87317.00
2022-09-13T19:11:48.731Z,87314.78
2022-09-13T19:14:23.346Z,87319.81
2022-09-13T19:16:52.413Z,87320.66
2022-09-13T19:19:19.722Z,87323.34
2022-09-13T19:21:46.951Z,87327.63
2022-09-13T19:24:17.294Z,87323.47
2022-09-13T19:26:47.988Z,87320.56
2022-09-13T19:29:18.703Z,87317.13
2022-09-13T19:31:52.293Z,87312.22
2022-09-13T19:34:21.724Z,87318.78
2022-09-13T19:36:50.393Z,87325.41
2022-09-13T19:39:17.929Z,87314.47
2022-09-13T19:41:45.101Z,87318.75
2022-09-13T19:44:15.406Z,87317.69
2022-09-13T19:46:43.447Z,87317.38
2022-09-13T19:49:16.573Z,87318.22
2022-09-13T19:51:48.853Z,87322.19
2022-09-13T19:54:19.299Z,87316.94
2022-09-13T19:56:46.810Z,87318.97
2022-09-13T19:59:17.037Z,87324.09
2022-09-13T20:01:47.083Z,87321.28
2022-09-13T20:04:18.748Z,87319.91
2022-09-13T20:06:49.551Z,87318.19
2022-09-13T20:09:20.539Z,87313.78
2022-09-13T20:11:48.776Z,87317.31
2022-09-13T20:14:20.247Z,87305.66
2022-09-13T20:16:48.548Z,87307.56
2022-09-13T20:19:39.332Z,87297.75
2022-09-13T20:22:06.681Z,87302.75
2022-09-13T20:24:33.889Z,87304.38
2022-09-13T20:27:01.087Z,87294.94
2022-09-13T20:29:28.243Z,87294.06
2022-09-13T20:31:55.555Z,87296.81
2022-09-13T20:34:22.890Z,87306.88
2022-09-13T20:36:50.088Z,87301.63
2022-09-13T20:39:17.269Z,87305.91
2022-09-13T20:41:44.801Z,87303.31
2022-09-13T20:44:12.550Z,87305.66
2022-09-13T20:46:40.040Z,87308.09
2022-09-13T20:49:08.691Z,87295.25
2022-09-13T20:51:36.654Z,87297.25
2022-09-13T20:54:04.328Z,87305.34
2022-09-13T20:56:32.136Z,87312.72
2022-09-13T20:58:59.661Z,87313.22
2022-09-13T21:01:29.708Z,87318.69
2022-09-13T21:03:58.085Z,87311.16
2022-09-13T21:06:29.125Z,87306.66
2022-09-13T21:08:57.098Z,87303.66
2022-09-13T21:11:32.968Z,87307.16
2022-09-13T21:14:04.737Z,87305.75
2022-09-13T21:16:36.135Z,87317.69
2022-09-13T21:19:03.915Z,87311.69
2022-09-13T21:21:35.133Z,87309.03
2022-09-13T21:24:04.091Z,87309.13
2022-09-13T21:26:32.296Z,87316.50
2022-09-13T21:29:00.189Z,87318.81
2022-09-13T21:31:33.161Z,87310.56
2022-09-13T21:34:07.202Z,87312.91
2022-09-13T21:36:35.897Z,87311.81
2022-09-13T21:39:05.213Z,87303.97
2022-09-13T21:41:33.311Z,87321.47
2022-09-13T21:44:01.037Z,87317.75
2022-09-13T21:46:35.183Z,87322.72
2022-09-13T21:49:05.793Z,87314.06
2022-09-13T21:51:36.849Z,87317.13
2022-09-13T21:54:08.227Z,87316.47
2022-09-13T21:56:39.833Z,87319.88
2022-09-13T21:59:15.533Z,87318.44
2022-09-13T22:01:47.989Z,87320.78
2022-09-13T22:04:22.881Z,87318.44
2022-09-13T22:06:51.841Z,87320.06
2022-09-13T22:09:21.113Z,87323.47
2022-09-13T22:11:49.653Z,87327.63
2022-09-13T22:14:19.535Z,87322.72
2022-09-13T22:16:46.759Z,87314.72
2022-09-13T22:19:21.592Z,87320.78
2022-09-13T22:21:53.438Z,87318.13
2022-09-13T22:24:23.996Z,87318.06
2022-09-13T22:26:52.757Z,87314.97
2022-09-13T22:29:21.527Z,87313.13
2022-09-13T22:31:51.202Z,87310.13
2022-09-13T22:34:24.260Z,87309.03
2022-09-13T22:36:54.186Z,87313.31
2022-09-13T22:39:21.366Z,87298.13
2022-09-13T22:41:48.596Z,87284.13
2022-09-13T22:44:15.745Z,87289.84
2022-09-13T22:46:46.702Z,87289.84
2022-09-13T22:49:22.979Z,87288.44
2022-09-13T22:51:50.146Z,87288.97
2022-09-13T22:54:19.517Z,87284.03
2022-09-13T22:56:48.151Z,87290.53
2022-09-13T22:59:20.063Z,87284.94
2022-09-13T23:01:48.672Z,87288.53
2022-09-13T23:04:16.182Z,87290.44
2022-09-13T23:06:44.238Z,87298.09
2022-09-13T23:09:17.049Z,87288.63
2022-09-13T23:11:45.134Z,87284.44
2022-09-13T23:14:15.238Z,87280.25
2022-09-13T23:16:45.944Z,87277.69
2022-09-13T23:19:15.020Z,87282.69
2022-09-13T23:21:43.850Z,87281.25
2022-09-13T23:24:15.585Z,87286.25
2022-09-13T23:26:44.473Z,87282.50
2022-09-13T23:29:15.980Z,87282.50
2022-09-13T23:31:43.917Z,87280.16
2022-09-13T23:34:12.667Z,87282.34
2022-09-13T23:36:42.808Z,87279.75
2022-09-13T23:39:15.563Z,87270.09
2022-09-13T23:41:43.458Z,87265.94
2022-09-13T23:44:10.715Z,87260.16
2022-09-13T23:46:38.004Z,87265.88
2022-09-13T23:49:05.275Z,87259.69
2022-09-13T23:51:32.764Z,87264.63
2022-09-13T23:54:00.202Z,87255.88
2022-09-13T23:56:31.541Z,87266.59
2022-09-13T23:59:01.697Z,87267.59
